sensor_id;sensor_type;location;lat;lon;timestamp;temperature;humidity
9998;DHT22;5038;53.064;8.624;2022-11-03T00:01:33;10.10;99.90
9998;DHT22;5038;53.064;8.624;2022-11-03T00:04:05;10.10;99.90
9998;DHT22;5038;53.064;8.624;2022-11-03T00:06:34;10.20;99.90
9998;DHT22;5038;53.064;8.624;2022-11-03T00:09:04;10.20;99.90
9998;DHT22;5038;53.064;8.624;2022-11-03T00:11:33;10.20;99.90
9998;DHT22;5038;53.064;8.624;2022-11-03T00:14:02;10.20;99.90
9998;DHT22;5038;53.064;8.624;2022-11-03T00:16:31;10.20;99.90
9998;DHT22;5038;53.064;8.624;2022-11-03T00:18:59;10.20;99.90
9998;DHT22;5038;53.064;8.624;2022-11-03T00:21:29;10.20;99.90
9998;DHT22;5038;53.064;8.624;2022-11-03T00:23:57;10.20;99.90
9998;DHT22;5038;53.064;8.624;2022-11-03T00:26:29;10.20;99.90
9998;DHT22;5038;53.064;8.624;2022-11-03T00:28:59;10.20;99.90
9998;DHT22;5038;53.064;8.624;2022-11-03T00:31:29;10.20;99.90
9998;DHT22;5038;53.064;8.624;2022-11-03T00:33:58;10.20;99.90
9998;DHT22;5038;53.064;8.624;2022-11-03T00:36:29;10.20;99.90
9998;DHT22;5038;53.064;8.624;2022-11-03T00:38:58;10.20;99.90
9998;DHT22;5038;53.064;8.624;2022-11-03T00:41:27;10.20;99.90
9998;DHT22;5038;53.064;8.624;2022-11-03T00:43:55;10.20;99.90
9998;DHT22;5038;53.064;8.624;2022-11-03T00:46:24;10.30;99.90
9998;DHT22;5038;53.064;8.624;2022-11-03T00:48:52;10.30;99.90
9998;DHT22;5038;53.064;8.624;2022-11-03T00:51:22;10.20;99.90
9998;DHT22;5038;53.064;8.624;2022-11-03T00:53:53;10.30;99.90
9998;DHT22;5038;53.064;8.624;2022-11-03T00:56:22;10.30;99.90
9998;DHT22;5038;53.064;8.624;2022-11-03T00:58:52;10.30;99.90
9998;DHT22;5038;53.064;8.624;2022-11-03T01:01:21;10.30;99.90
9998;DHT22;5038;53.064;8.624;2022-11-03T01:03:52;10.30;99.90
9998;DHT22;5038;53.064;8.624;2022-11-03T01:06:39;10.30;99.90
9998;DHT22;5038;53.064;8.624;2022-11-03T01:09:19;10.30;99.90
9998;DHT22;5038;53.064;8.624;2022-11-03T01:11:53;10.40;99.90
9998;DHT22;5038;53.064;8.624;2022-11-03T01:14:24;10.40;99.90
9998;DHT22;5038;53.064;8.624;2022-11-03T01:16:52;10.40;99.90
9998;DHT22;5038;53.064;8.624;2022-11-03T01:19:21;10.40;99.90
9998;DHT22;5038;53.064;8.624;2022-11-03T01:21:49;10.40;99.90
9998;DHT22;5038;53.064;8.624;2022-11-03T01:24:19;10.40;99.90
9998;DHT22;5038;53.064;8.624;2022-11-03T01:26:47;10.40;99.90
9998;DHT22;5038;53.064;8.624;2022-11-03T01:29:15;10.40;99.90
9998;DHT22;5038;53.064;8.624;2022-11-03T01:31:44;10.50;99.90
9998;DHT22;5038;53.064;8.624;2022-11-03T01:34:13;10.50;99.90
9998;DHT22;5038;53.064;8.624;2022-11-03T01:36:43;10.50;99.90
9998;DHT22;5038;53.064;8.624;2022-11-03T01:39:14;10.50;99.90
9998;DHT22;5038;53.064;8.624;2022-11-03T01:41:45;10.50;99.90
9998;DHT22;5038;53.064;8.624;2022-11-03T01:44:28;10.50;99.90
9998;DHT22;5038;53.064;8.624;2022-11-03T01:47:03;10.50;99.90
9998;DHT22;5038;53.064;8.624;2022-11-03T01:49:37;10.50;99.90
9998;DHT22;5038;53.064;8.624;2022-11-03T01:52:11;10.50;99.90
9998;DHT22;5038;53.064;8.624;2022-11-03T01:54:43;10.50;99.90
9998;DHT22;5038;53.064;8.624;2022-11-03T01:57:16;10.50;99.90
9998;DHT22;5038;53.064;8.624;2022-11-03T01:59:47;10.50;99.90
9998;DHT22;5038;53.064;8.624;2022-11-03T02:02:23;10.50;99.90
9998;DHT22;5038;53.064;8.624;2022-11-03T02:04:51;10.60;99.90
9998;DHT22;5038;53.064;8.624;2022-11-03T02:07:25;10.50;99.90
9998;DHT22;5038;53.064;8.624;2022-11-03T02:09:54;10.50;99.90
9998;DHT22;5038;53.064;8.624;2022-11-03T02:12:23;10.50;99.90
9998;DHT22;5038;53.064;8.624;2022-11-03T02:14:54;10.50;99.90
9998;DHT22;5038;53.064;8.624;2022-11-03T02:17:26;10.50;99.90
9998;DHT22;5038;53.064;8.624;2022-11-03T02:19:58;10.50;99.90
9998;DHT22;5038;53.064;8.624;2022-11-03T02:22:51;10.50;99.90
9998;DHT22;5038;53.064;8.624;2022-11-03T02:25:45;10.50;99.90
9998;DHT22;5038;53.064;8.624;2022-11-03T02:28:16;10.40;99.90
9998;DHT22;5038;53.064;8.624;2022-11-03T02:30:51;10.50;99.90
9998;DHT22;5038;53.064;8.624;2022-11-03T02:33:30;10.50;99.90
9998;DHT22;5038;53.064;8.624;2022-11-03T02:36:07;10.50;99.90
9998;DHT22;5038;53.064;8.624;2022-11-03T02:38:44;10.50;99.90
9998;DHT22;5038;53.064;8.624;2022-11-03T02:41:15;10.50;99.90
9998;DHT22;5038;53.064;8.624;2022-11-03T02:43:45;10.50;99.90
9998;DHT22;5038;53.064;8.624;2022-11-03T02:46:15;10.50;99.90
9998;DHT22;5038;53.064;8.624;2022-11-03T02:48:44;10.40;99.90
9998;DHT22;5038;53.064;8.624;2022-11-03T02:51:12;10.50;99.90
9998;DHT22;5038;53.064;8.624;2022-11-03T02:53:45;10.40;99.90
9998;DHT22;5038;53.064;8.624;2022-11-03T02:56:18;10.50;99.90
9998;DHT22;5038;53.064;8.624;2022-11-03T02:58:51;10.40;99.90
9998;DHT22;5038;53.064;8.624;2022-11-03T03:01:26;10.40;99.90
9998;DHT22;5038;53.064;8.624;2022-11-03T03:03:58;10.40;99.90
9998;DHT22;5038;53.064;8.624;2022-11-03T03:06:31;10.40;99.90
9998;DHT22;5038;53.064;8.624;2022-11-03T03:09:04;10.40;99.90
9998;DHT22;5038;53.064;8.624;2022-11-03T03:11:35;10.40;99.90
9998;DHT22;5038;53.064;8.624;2022-11-03T03:14:10;10.40;99.90
9998;DHT22;5038;53.064;8.624;2022-11-03T03:16:47;10.40;99.90
9998;DHT22;5038;53.064;8.624;2022-11-03T03:19:21;10.40;99.90
9998;DHT22;5038;53.064;8.624;2022-11-03T03:21:52;10.30;99.90
9998;DHT22;5038;53.064;8.624;2022-11-03T03:24:27;10.30;99.90
9998;DHT22;5038;53.064;8.624;2022-11-03T03:27:00;10.30;99.90
9998;DHT22;5038;53.064;8.624;2022-11-03T03:29:35;10.30;99.90
9998;DHT22;5038;53.064;8.624;2022-11-03T03:32:07;10.30;99.90
9998;DHT22;5038;53.064;8.624;2022-11-03T03:34:38;10.30;99.90
9998;DHT22;5038;53.064;8.624;2022-11-03T03:37:11;10.30;99.90
9998;DHT22;5038;53.064;8.624;2022-11-03T03:39:45;10.30;99.90
9998;DHT22;5038;53.064;8.624;2022-11-03T03:42:17;10.30;99.90
9998;DHT22;5038;53.064;8.624;2022-11-03T03:44:47;10.40;99.90
9998;DHT22;5038;53.064;8.624;2022-11-03T03:47:19;10.40;99.90
9998;DHT22;5038;53.064;8.624;2022-11-03T03:49:48;10.40;99.90
9998;DHT22;5038;53.064;8.624;2022-11-03T03:52:17;10.40;99.90
9998;DHT22;5038;53.064;8.624;2022-11-03T03:54:45;10.40;99.90
9998;DHT22;5038;53.064;8.624;2022-11-03T03:57:16;10.40;99.90
9998;DHT22;5038;53.064;8.624;2022-11-03T03:59:45;10.40;99.90
9998;DHT22;5038;53.064;8.624;2022-11-03T04:02:13;10.30;99.90
9998;DHT22;5038;53.064;8.624;2022-11-03T04:04:42;10.30;99.90
9998;DHT22;5038;53.064;8.624;2022-11-03T04:07:10;10.30;99.90
9998;DHT22;5038;53.064;8.624;2022-11-03T04:09:56;10.40;99.90
9998;DHT22;5038;53.064;8.624;2022-11-03T04:12:25;10.30;99.90
9998;DHT22;5038;53.064;8.624;2022-11-03T04:15:12;10.30;99.90
9998;DHT22;5038;53.064;8.624;2022-11-03T04:17:57;10.30;99.90
9998;DHT22;5038;53.064;8.624;2022-11-03T04:20:43;10.30;99.90
9998;DHT22;5038;53.064;8.624;2022-11-03T04:23:28;10.30;99.90
9998;DHT22;5038;53.064;8.624;2022-11-03T04:25:56;10.30;99.90
9998;DHT22;5038;53.064;8.624;2022-11-03T04:28:26;10.30;99.90
9998;DHT22;5038;53.064;8.624;2022-11-03T04:30:56;10.30;99.90
9998;DHT22;5038;53.064;8.624;2022-11-03T04:33:25;10.30;99.90
9998;DHT22;5038;53.064;8.624;2022-11-03T04:35:58;10.30;99.90
9998;DHT22;5038;53.064;8.624;2022-11-03T04:38:27;10.30;99.90
9998;DHT22;5038;53.064;8.624;2022-11-03T04:40:57;10.30;99.90
9998;DHT22;5038;53.064;8.624;2022-11-03T04:43:32;10.30;99.90
9998;DHT22;5038;53.064;8.624;2022-11-03T04:46:02;10.30;99.90
9998;DHT22;5038;53.064;8.624;2022-11-03T04:48:30;10.30;99.90
9998;DHT22;5038;53.064;8.624;2022-11-03T04:51:09;10.30;99.90
9998;DHT22;5038;53.064;8.624;2022-11-03T04:53:39;10.30;99.90
9998;DHT22;5038;53.064;8.624;2022-11-03T04:56:14;10.30;99.90
9998;DHT22;5038;53.064;8.624;2022-11-03T04:58:44;10.30;99.90
9998;DHT22;5038;53.064;8.624;2022-11-03T05:01:15;10.30;99.90
9998;DHT22;5038;53.064;8.624;2022-11-03T05:03:51;10.30;99.90
9998;DHT22;5038;53.064;8.624;2022-11-03T05:06:21;10.30;99.90
9998;DHT22;5038;53.064;8.624;2022-11-03T05:08:54;10.30;99.90
9998;DHT22;5038;53.064;8.624;2022-11-03T05:11:27;10.30;99.90
9998;DHT22;5038;53.064;8.624;2022-11-03T05:14:00;10.30;99.90
9998;DHT22;5038;53.064;8.624;2022-11-03T05:16:30;10.30;99.90
9998;DHT22;5038;53.064;8.624;2022-11-03T05:18:58;10.30;99.90
9998;DHT22;5038;53.064;8.624;2022-11-03T05:21:26;10.30;99.90
9998;DHT22;5038;53.064;8.624;2022-11-03T05:23:57;10.30;99.90
9998;DHT22;5038;53.064;8.624;2022-11-03T05:26:30;10.40;99.90
9998;DHT22;5038;53.064;8.624;2022-11-03T05:29:02;10.40;99.90
9998;DHT22;5038;53.064;8.624;2022-11-03T05:31:33;10.40;99.90
9998;DHT22;5038;53.064;8.624;2022-11-03T05:34:11;10.40;99.90
9998;DHT22;5038;53.064;8.624;2022-11-03T05:36:42;10.40;99.90
9998;DHT22;5038;53.064;8.624;2022-11-03T05:39:25;10.40;99.90
9998;DHT22;5038;53.064;8.624;2022-11-03T05:41:56;10.40;99.90
9998;DHT22;5038;53.064;8.624;2022-11-03T05:44:29;10.40;99.90
9998;DHT22;5038;53.064;8.624;2022-11-03T05:46:59;10.40;99.90
9998;DHT22;5038;53.064;8.624;2022-11-03T05:49:34;10.40;99.90
9998;DHT22;5038;53.064;8.624;2022-11-03T05:52:02;10.40;99.90
9998;DHT22;5038;53.064;8.624;2022-11-03T05:54:32;10.40;99.90
9998;DHT22;5038;53.064;8.624;2022-11-03T05:57:03;10.40;99.90
9998;DHT22;5038;53.064;8.624;2022-11-03T05:59:36;10.40;99.90
9998;DHT22;5038;53.064;8.624;2022-11-03T06:02:18;10.40;99.90
9998;DHT22;5038;53.064;8.624;2022-11-03T06:04:50;10.40;99.90
9998;DHT22;5038;53.064;8.624;2022-11-03T06:07:22;10.40;99.90
9998;DHT22;5038;53.064;8.624;2022-11-03T06:09:51;10.40;99.90
9998;DHT22;5038;53.064;8.624;2022-11-03T06:12:21;10.40;99.90
9998;DHT22;5038;53.064;8.624;2022-11-03T06:14:51;10.40;99.90
9998;DHT22;5038;53.064;8.624;2022-11-03T06:17:21;10.40;99.90
9998;DHT22;5038;53.064;8.624;2022-11-03T06:19:52;10.40;99.90
9998;DHT22;5038;53.064;8.624;2022-11-03T06:22:23;10.40;99.90
9998;DHT22;5038;53.064;8.624;2022-11-03T06:24:55;10.40;99.90
9998;DHT22;5038;53.064;8.624;2022-11-03T06:27:27;10.40;99.90
9998;DHT22;5038;53.064;8.624;2022-11-03T06:30:18;10.40;99.90
9998;DHT22;5038;53.064;8.624;2022-11-03T06:32:47;10.30;99.90
9998;DHT22;5038;53.064;8.624;2022-11-03T06:35:16;10.30;99.90
9998;DHT22;5038;53.064;8.624;2022-11-03T06:37:44;10.30;99.90
9998;DHT22;5038;53.064;8.624;2022-11-03T06:40:34;10.30;99.90
9998;DHT22;5038;53.064;8.624;2022-11-03T06:43:15;10.30;99.90
9998;DHT22;5038;53.064;8.624;2022-11-03T06:45:49;10.30;99.90
9998;DHT22;5038;53.064;8.624;2022-11-03T06:48:25;10.30;99.90
9998;DHT22;5038;53.064;8.624;2022-11-03T06:50:55;10.30;99.90
9998;DHT22;5038;53.064;8.624;2022-11-03T06:53:25;10.30;99.90
9998;DHT22;5038;53.064;8.624;2022-11-03T06:55:54;10.30;99.90
9998;DHT22;5038;53.064;8.624;2022-11-03T06:58:26;10.30;99.90
9998;DHT22;5038;53.064;8.624;2022-11-03T07:00:58;10.30;99.90
9998;DHT22;5038;53.064;8.624;2022-11-03T07:03:31;10.30;99.90
9998;DHT22;5038;53.064;8.624;2022-11-03T07:06:03;10.30;99.90
9998;DHT22;5038;53.064;8.624;2022-11-03T07:08:35;10.30;99.90
9998;DHT22;5038;53.064;8.624;2022-11-03T07:11:10;10.30;99.90
9998;DHT22;5038;53.064;8.624;2022-11-03T07:13:42;10.30;99.90
9998;DHT22;5038;53.064;8.624;2022-11-03T07:16:24;10.30;99.90
9998;DHT22;5038;53.064;8.624;2022-11-03T07:18:55;10.40;99.90
9998;DHT22;5038;53.064;8.624;2022-11-03T07:21:33;10.40;99.90
9998;DHT22;5038;53.064;8.624;2022-11-03T07:24:11;10.40;99.90
9998;DHT22;5038;53.064;8.624;2022-11-03T07:26:40;10.40;99.90
9998;DHT22;5038;53.064;8.624;2022-11-03T07:29:11;10.40;99.90
9998;DHT22;5038;53.064;8.624;2022-11-03T07:31:43;10.50;99.90
9998;DHT22;5038;53.064;8.624;2022-11-03T07:34:17;10.50;99.90
9998;DHT22;5038;53.064;8.624;2022-11-03T07:36:46;10.50;99.90
9998;DHT22;5038;53.064;8.624;2022-11-03T07:39:21;10.50;99.90
9998;DHT22;5038;53.064;8.624;2022-11-03T07:41:50;10.60;99.90
9998;DHT22;5038;53.064;8.624;2022-11-03T07:44:19;10.60;99.90
9998;DHT22;5038;53.064;8.624;2022-11-03T07:46:49;10.60;99.90
9998;DHT22;5038;53.064;8.624;2022-11-03T07:49:24;10.70;99.90
9998;DHT22;5038;53.064;8.624;2022-11-03T07:51:54;10.70;99.90
9998;DHT22;5038;53.064;8.624;2022-11-03T07:54:26;10.70;99.90
9998;DHT22;5038;53.064;8.624;2022-11-03T07:56:56;10.80;99.90
9998;DHT22;5038;53.064;8.624;2022-11-03T07:59:29;10.80;99.90
9998;DHT22;5038;53.064;8.624;2022-11-03T08:01:59;10.90;99.90
9998;DHT22;5038;53.064;8.624;2022-11-03T08:04:30;10.90;99.90
9998;DHT22;5038;53.064;8.624;2022-11-03T08:07:00;11.00;99.90
9998;DHT22;5038;53.064;8.624;2022-11-03T08:09:28;11.00;99.90
9998;DHT22;5038;53.064;8.624;2022-11-03T08:11:56;11.10;99.90
9998;DHT22;5038;53.064;8.624;2022-11-03T08:14:24;11.10;99.90
9998;DHT22;5038;53.064;8.624;2022-11-03T08:16:53;11.20;99.90
9998;DHT22;5038;53.064;8.624;2022-11-03T08:19:22;11.20;99.90
9998;DHT22;5038;53.064;8.624;2022-11-03T08:21:50;11.30;99.90
9998;DHT22;5038;53.064;8.624;2022-11-03T08:24:18;11.30;99.90
9998;DHT22;5038;53.064;8.624;2022-11-03T08:26:46;11.40;99.90
9998;DHT22;5038;53.064;8.624;2022-11-03T08:29:15;11.40;99.90
9998;DHT22;5038;53.064;8.624;2022-11-03T08:31:43;11.50;99.90
9998;DHT22;5038;53.064;8.624;2022-11-03T08:34:12;11.50;99.90
9998;DHT22;5038;53.064;8.624;2022-11-03T08:36:41;11.60;99.90
9998;DHT22;5038;53.064;8.624;2022-11-03T08:39:09;11.60;99.90
9998;DHT22;5038;53.064;8.624;2022-11-03T08:41:37;11.70;99.90
9998;DHT22;5038;53.064;8.624;2022-11-03T08:44:05;11.80;99.90
9998;DHT22;5038;53.064;8.624;2022-11-03T08:46:33;11.80;99.90
9998;DHT22;5038;53.064;8.624;2022-11-03T08:49:02;11.90;99.90
9998;DHT22;5038;53.064;8.624;2022-11-03T08:51:30;11.90;99.90
9998;DHT22;5038;53.064;8.624;2022-11-03T08:53:59;12.00;99.90
9998;DHT22;5038;53.064;8.624;2022-11-03T08:56:27;12.00;99.90
9998;DHT22;5038;53.064;8.624;2022-11-03T08:58:55;12.10;99.90
9998;DHT22;5038;53.064;8.624;2022-11-03T09:01:23;12.10;99.90
9998;DHT22;5038;53.064;8.624;2022-11-03T09:03:52;12.20;99.90
9998;DHT22;5038;53.064;8.624;2022-11-03T09:06:20;12.20;99.90
9998;DHT22;5038;53.064;8.624;2022-11-03T09:08:48;12.30;99.90
9998;DHT22;5038;53.064;8.624;2022-11-03T09:11:37;12.30;99.90
9998;DHT22;5038;53.064;8.624;2022-11-03T09:14:05;12.40;99.90
9998;DHT22;5038;53.064;8.624;2022-11-03T09:16:33;12.40;99.90
9998;DHT22;5038;53.064;8.624;2022-11-03T09:19:03;12.50;99.90
9998;DHT22;5038;53.064;8.624;2022-11-03T09:21:31;12.50;99.90
9998;DHT22;5038;53.064;8.624;2022-11-03T09:23:59;12.50;99.90
9998;DHT22;5038;53.064;8.624;2022-11-03T09:26:27;12.60;99.90
9998;DHT22;5038;53.064;8.624;2022-11-03T09:28:56;12.60;99.90
9998;DHT22;5038;53.064;8.624;2022-11-03T09:31:24;12.70;99.90
9998;DHT22;5038;53.064;8.624;2022-11-03T09:33:54;12.70;99.90
9998;DHT22;5038;53.064;8.624;2022-11-03T09:36:22;12.80;99.90
9998;DHT22;5038;53.064;8.624;2022-11-03T09:38:50;12.90;99.90
9998;DHT22;5038;53.064;8.624;2022-11-03T09:41:18;12.90;99.90
9998;DHT22;5038;53.064;8.624;2022-11-03T09:44:08;13.00;99.90
9998;DHT22;5038;53.064;8.624;2022-11-03T09:46:37;13.10;99.90
9998;DHT22;5038;53.064;8.624;2022-11-03T09:49:05;13.10;99.90
9998;DHT22;5038;53.064;8.624;2022-11-03T09:51:34;13.20;99.90
9998;DHT22;5038;53.064;8.624;2022-11-03T09:54:03;13.20;99.90
9998;DHT22;5038;53.064;8.624;2022-11-03T09:56:34;13.20;99.90
9998;DHT22;5038;53.064;8.624;2022-11-03T09:59:12;13.30;99.90
9998;DHT22;5038;53.064;8.624;2022-11-03T10:01:42;13.30;99.90
9998;DHT22;5038;53.064;8.624;2022-11-03T10:04:11;13.40;99.90
9998;DHT22;5038;53.064;8.624;2022-11-03T10:06:39;13.40;99.90
9998;DHT22;5038;53.064;8.624;2022-11-03T10:09:11;13.50;99.90
9998;DHT22;5038;53.064;8.624;2022-11-03T10:11:41;13.50;99.90
9998;DHT22;5038;53.064;8.624;2022-11-03T10:14:13;13.50;99.90
9998;DHT22;5038;53.064;8.624;2022-11-03T10:16:44;13.60;99.90
9998;DHT22;5038;53.064;8.624;2022-11-03T10:19:19;13.60;99.90
9998;DHT22;5038;53.064;8.624;2022-11-03T10:21:47;13.70;99.90
9998;DHT22;5038;53.064;8.624;2022-11-03T10:24:15;13.70;99.90
9998;DHT22;5038;53.064;8.624;2022-11-03T10:26:45;13.70;99.90
9998;DHT22;5038;53.064;8.624;2022-11-03T10:29:20;13.80;99.90
9998;DHT22;5038;53.064;8.624;2022-11-03T10:31:50;13.80;99.90
9998;DHT22;5038;53.064;8.624;2022-11-03T10:34:25;13.90;99.90
9998;DHT22;5038;53.064;8.624;2022-11-03T10:37:13;13.90;99.90
9998;DHT22;5038;53.064;8.624;2022-11-03T10:39:43;13.90;99.90
9998;DHT22;5038;53.064;8.624;2022-11-03T10:42:17;14.00;99.90
9998;DHT22;5038;53.064;8.624;2022-11-03T10:44:51;14.00;99.90
9998;DHT22;5038;53.064;8.624;2022-11-03T10:47:24;14.00;99.90
9998;DHT22;5038;53.064;8.624;2022-11-03T10:49:53;14.00;99.90
9998;DHT22;5038;53.064;8.624;2022-11-03T10:52:23;14.00;99.90
9998;DHT22;5038;53.064;8.624;2022-11-03T10:54:53;14.00;99.90
9998;DHT22;5038;53.064;8.624;2022-11-03T10:57:22;14.00;99.90
9998;DHT22;5038;53.064;8.624;2022-11-03T10:59:53;14.10;99.90
9998;DHT22;5038;53.064;8.624;2022-11-03T11:02:23;14.10;99.90
9998;DHT22;5038;53.064;8.624;2022-11-03T11:04:55;14.10;99.90
9998;DHT22;5038;53.064;8.624;2022-11-03T11:07:31;14.10;99.90
9998;DHT22;5038;53.064;8.624;2022-11-03T11:10:05;14.20;99.90
9998;DHT22;5038;53.064;8.624;2022-11-03T11:12:34;14.20;99.90
9998;DHT22;5038;53.064;8.624;2022-11-03T11:15:34;14.20;99.90
9998;DHT22;5038;53.064;8.624;2022-11-03T11:18:05;14.20;99.90
9998;DHT22;5038;53.064;8.624;2022-11-03T11:20:36;14.20;99.90
9998;DHT22;5038;53.064;8.624;2022-11-03T11:38:54;14.40;99.90
9998;DHT22;5038;53.064;8.624;2022-11-03T11:44:48;14.50;99.90
9998;DHT22;5038;53.064;8.624;2022-11-03T11:47:24;14.50;99.90
9998;DHT22;5038;53.064;8.624;2022-11-03T11:50:14;14.50;99.90
9998;DHT22;5038;53.064;8.624;2022-11-03T11:52:45;14.50;99.90
9998;DHT22;5038;53.064;8.624;2022-11-03T11:55:24;14.50;99.90
9998;DHT22;5038;53.064;8.624;2022-11-03T11:57:53;14.50;99.90
9998;DHT22;5038;53.064;8.624;2022-11-03T12:00:24;14.50;99.90
9998;DHT22;5038;53.064;8.624;2022-11-03T12:02:53;14.60;99.90
9998;DHT22;5038;53.064;8.624;2022-11-03T12:05:24;14.60;99.90
9998;DHT22;5038;53.064;8.624;2022-11-03T12:07:54;14.60;99.90
9998;DHT22;5038;53.064;8.624;2022-11-03T12:10:25;14.60;99.90
9998;DHT22;5038;53.064;8.624;2022-11-03T12:12:54;14.60;99.90
9998;DHT22;5038;53.064;8.624;2022-11-03T12:15:48;14.60;99.90
9998;DHT22;5038;53.064;8.624;2022-11-03T12:18:31;14.60;99.90
9998;DHT22;5038;53.064;8.624;2022-11-03T12:21:07;14.60;99.90
9998;DHT22;5038;53.064;8.624;2022-11-03T12:23:39;14.60;99.90
9998;DHT22;5038;53.064;8.624;2022-11-03T12:26:17;14.60;99.90
9998;DHT22;5038;53.064;8.624;2022-11-03T12:28:45;14.60;99.90
9998;DHT22;5038;53.064;8.624;2022-11-03T12:31:13;14.60;99.90
9998;DHT22;5038;53.064;8.624;2022-11-03T12:33:41;14.60;99.90
9998;DHT22;5038;53.064;8.624;2022-11-03T12:36:09;14.60;99.90
9998;DHT22;5038;53.064;8.624;2022-11-03T12:38:37;14.60;99.90
9998;DHT22;5038;53.064;8.624;2022-11-03T12:41:05;14.60;99.90
9998;DHT22;5038;53.064;8.624;2022-11-03T12:43:55;14.60;99.90
9998;DHT22;5038;53.064;8.624;2022-11-03T12:46:23;14.60;99.90
9998;DHT22;5038;53.064;8.624;2022-11-03T12:48:51;14.60;99.90
9998;DHT22;5038;53.064;8.624;2022-11-03T12:51:22;14.60;99.90
9998;DHT22;5038;53.064;8.624;2022-11-03T12:53:50;14.60;99.90
9998;DHT22;5038;53.064;8.624;2022-11-03T12:56:18;14.60;99.90
9998;DHT22;5038;53.064;8.624;2022-11-03T12:58:46;14.60;99.90
9998;DHT22;5038;53.064;8.624;2022-11-03T13:01:16;14.60;99.90
9998;DHT22;5038;53.064;8.624;2022-11-03T13:03:44;14.60;99.90
9998;DHT22;5038;53.064;8.624;2022-11-03T13:06:12;14.50;99.90
9998;DHT22;5038;53.064;8.624;2022-11-03T13:08:40;14.50;99.90
9998;DHT22;5038;53.064;8.624;2022-11-03T13:11:12;14.50;99.90
9998;DHT22;5038;53.064;8.624;2022-11-03T13:13:54;14.50;99.90
9998;DHT22;5038;53.064;8.624;2022-11-03T13:16:24;14.50;99.90
9998;DHT22;5038;53.064;8.624;2022-11-03T13:18:52;14.50;99.90
9998;DHT22;5038;53.064;8.624;2022-11-03T13:21:20;14.50;99.90
9998;DHT22;5038;53.064;8.624;2022-11-03T13:23:48;14.40;99.90
9998;DHT22;5038;53.064;8.624;2022-11-03T13:26:18;14.40;99.90
9998;DHT22;5038;53.064;8.624;2022-11-03T13:28:46;14.40;99.90
9998;DHT22;5038;53.064;8.624;2022-11-03T13:31:14;14.40;99.90
9998;DHT22;5038;53.064;8.624;2022-11-03T13:33:44;14.40;99.90
9998;DHT22;5038;53.064;8.624;2022-11-03T13:36:12;14.40;99.90
9998;DHT22;5038;53.064;8.624;2022-11-03T13:38:40;14.40;99.90
9998;DHT22;5038;53.064;8.624;2022-11-03T13:41:08;14.40;99.90
9998;DHT22;5038;53.064;8.624;2022-11-03T13:43:36;14.40;99.90
9998;DHT22;5038;53.064;8.624;2022-11-03T13:46:04;14.30;99.90
9998;DHT22;5038;53.064;8.624;2022-11-03T13:48:32;14.40;99.90
9998;DHT22;5038;53.064;8.624;2022-11-03T13:51:22;14.30;99.90
9998;DHT22;5038;53.064;8.624;2022-11-03T13:53:50;14.30;99.90
9998;DHT22;5038;53.064;8.624;2022-11-03T13:56:38;14.30;99.90
9998;DHT22;5038;53.064;8.624;2022-11-03T13:59:26;14.30;99.90
9998;DHT22;5038;53.064;8.624;2022-11-03T14:01:55;14.30;99.90
9998;DHT22;5038;53.064;8.624;2022-11-03T14:04:43;14.30;99.90
9998;DHT22;5038;53.064;8.624;2022-11-03T14:07:12;14.30;99.90
9998;DHT22;5038;53.064;8.624;2022-11-03T14:09:40;14.30;99.90
9998;DHT22;5038;53.064;8.624;2022-11-03T14:12:08;14.30;99.90
9998;DHT22;5038;53.064;8.624;2022-11-03T14:14:54;14.20;99.90
9998;DHT22;5038;53.064;8.624;2022-11-03T14:17:22;14.30;99.90
9998;DHT22;5038;53.064;8.624;2022-11-03T14:19:50;14.30;99.90
9998;DHT22;5038;53.064;8.624;2022-11-03T14:22:26;14.30;99.90
9998;DHT22;5038;53.064;8.624;2022-11-03T14:24:56;14.20;99.90
9998;DHT22;5038;53.064;8.624;2022-11-03T14:27:24;14.20;99.90
9998;DHT22;5038;53.064;8.624;2022-11-03T14:29:52;14.20;99.90
9998;DHT22;5038;53.064;8.624;2022-11-03T14:32:20;14.20;99.90
9998;DHT22;5038;53.064;8.624;2022-11-03T14:34:48;14.20;99.90
9998;DHT22;5038;53.064;8.624;2022-11-03T14:37:16;14.20;99.90
9998;DHT22;5038;53.064;8.624;2022-11-03T14:39:46;14.20;99.90
9998;DHT22;5038;53.064;8.624;2022-11-03T14:42:14;14.20;99.90
9998;DHT22;5038;53.064;8.624;2022-11-03T14:44:43;14.20;99.90
9998;DHT22;5038;53.064;8.624;2022-11-03T14:47:13;14.20;99.90
9998;DHT22;5038;53.064;8.624;2022-11-03T14:49:43;14.10;99.90
9998;DHT22;5038;53.064;8.624;2022-11-03T14:52:12;14.20;99.90
9998;DHT22;5038;53.064;8.624;2022-11-03T14:54:40;14.20;99.90
9998;DHT22;5038;53.064;8.624;2022-11-03T14:57:10;14.10;99.90
9998;DHT22;5038;53.064;8.624;2022-11-03T14:59:38;14.10;99.90
9998;DHT22;5038;53.064;8.624;2022-11-03T15:02:06;14.10;99.90
9998;DHT22;5038;53.064;8.624;2022-11-03T15:04:34;14.10;99.90
9998;DHT22;5038;53.064;8.624;2022-11-03T15:07:02;14.10;99.90
9998;DHT22;5038;53.064;8.624;2022-11-03T15:09:30;14.00;99.90
9998;DHT22;5038;53.064;8.624;2022-11-03T15:11:59;14.00;99.90
9998;DHT22;5038;53.064;8.624;2022-11-03T15:14:28;14.00;99.90
9998;DHT22;5038;53.064;8.624;2022-11-03T15:16:56;13.90;99.90
9998;DHT22;5038;53.064;8.624;2022-11-03T15:19:24;13.90;99.90
9998;DHT22;5038;53.064;8.624;2022-11-03T15:21:52;13.90;99.90
9998;DHT22;5038;53.064;8.624;2022-11-03T15:24:20;13.90;99.90
9998;DHT22;5038;53.064;8.624;2022-11-03T15:27:08;13.90;99.90
9998;DHT22;5038;53.064;8.624;2022-11-03T15:29:38;13.90;99.90
9998;DHT22;5038;53.064;8.624;2022-11-03T15:32:06;13.80;99.90
9998;DHT22;5038;53.064;8.624;2022-11-03T15:34:34;13.80;99.90
9998;DHT22;5038;53.064;8.624;2022-11-03T15:37:02;13.80;99.90
9998;DHT22;5038;53.064;8.624;2022-11-03T15:39:30;13.80;99.90
9998;DHT22;5038;53.064;8.624;2022-11-03T15:41:58;13.80;99.90
9998;DHT22;5038;53.064;8.624;2022-11-03T15:44:26;13.80;99.90
9998;DHT22;5038;53.064;8.624;2022-11-03T15:46:56;13.70;99.90
9998;DHT22;5038;53.064;8.624;2022-11-03T15:49:24;13.70;99.90
9998;DHT22;5038;53.064;8.624;2022-11-03T15:51:52;13.70;99.90
9998;DHT22;5038;53.064;8.624;2022-11-03T15:54:20;13.70;99.90
9998;DHT22;5038;53.064;8.624;2022-11-03T15:56:48;13.70;99.90
9998;DHT22;5038;53.064;8.624;2022-11-03T15:59:16;13.70;99.90
9998;DHT22;5038;53.064;8.624;2022-11-03T16:01:44;13.60;99.90
9998;DHT22;5038;53.064;8.624;2022-11-03T16:04:14;13.60;99.90
9998;DHT22;5038;53.064;8.624;2022-11-03T16:06:43;13.60;99.90
9998;DHT22;5038;53.064;8.624;2022-11-03T16:09:31;13.60;99.90
9998;DHT22;5038;53.064;8.624;2022-11-03T16:11:59;13.50;99.90
9998;DHT22;5038;53.064;8.624;2022-11-03T16:14:28;13.50;99.90
9998;DHT22;5038;53.064;8.624;2022-11-03T16:16:56;13.50;99.90
9998;DHT22;5038;53.064;8.624;2022-11-03T16:19:26;13.50;99.90
9998;DHT22;5038;53.064;8.624;2022-11-03T16:21:54;13.50;99.90
9998;DHT22;5038;53.064;8.624;2022-11-03T16:24:22;13.40;99.90
9998;DHT22;5038;53.064;8.624;2022-11-03T16:27:01;13.40;99.90
9998;DHT22;5038;53.064;8.624;2022-11-03T16:29:29;13.40;99.90
9998;DHT22;5038;53.064;8.624;2022-11-03T16:31:57;13.40;99.90
9998;DHT22;5038;53.064;8.624;2022-11-03T16:34:26;13.30;99.90
9998;DHT22;5038;53.064;8.624;2022-11-03T16:36:55;13.30;99.90
9998;DHT22;5038;53.064;8.624;2022-11-03T16:39:23;13.30;99.90
9998;DHT22;5038;53.064;8.624;2022-11-03T16:41:51;13.30;99.90
9998;DHT22;5038;53.064;8.624;2022-11-03T16:44:20;13.20;99.90
9998;DHT22;5038;53.064;8.624;2022-11-03T16:46:48;13.20;99.90
9998;DHT22;5038;53.064;8.624;2022-11-03T16:49:16;13.20;99.90